sensor_id;sensor_type;location;lat;lon;timestamp;P1;durP1;ratioP1;P2;durP2;ratioP2
29120;SDS011;16191;49.548;8.658;2023-09-30T00:02:19;8.13;;;2.63;;
29120;SDS011;16191;49.548;8.658;2023-09-30T00:04:46;9.73;;;2.97;;
29120;SDS011;16191;49.548;8.658;2023-09-30T00:07:13;8.07;;;2.83;;
29120;SDS011;16191;49.548;8.658;2023-09-30T00:09:40;8.25;;;2.85;;
29120;SDS011;16191;49.548;8.658;2023-09-30T00:12:07;8.15;;;2.65;;
29120;SDS011;16191;49.548;8.658;2023-09-30T00:14:33;7.38;;;2.85;;
29120;SDS011;16191;49.548;8.658;2023-09-30T00:17:00;9.18;;;3.63;;
29120;SDS011;16191;49.548;8.658;2023-09-30T00:19:27;9.60;;;4.32;;
29120;SDS011;16191;49.548;8.658;2023-09-30T00:21:53;8.73;;;3.30;;
29120;SDS011;16191;49.548;8.658;2023-09-30T00:24:20;9.82;;;3.13;;
29120;SDS011;16191;49.548;8.658;2023-09-30T00:26:47;7.85;;;3.10;;
29120;SDS011;16191;49.548;8.658;2023-09-30T00:29:13;6.65;;;2.85;;
29120;SDS011;16191;49.548;8.658;2023-09-30T00:31:40;5.60;;;2.80;;
29120;SDS011;16191;49.548;8.658;2023-09-30T00:34:07;8.20;;;2.95;;
29120;SDS011;16191;49.548;8.658;2023-09-30T00:36:34;9.40;;;2.72;;
29120;SDS011;16191;49.548;8.658;2023-09-30T00:39:01;8.40;;;2.97;;
29120;SDS011;16191;49.548;8.658;2023-09-30T00:41:28;9.18;;;2.83;;
29120;SDS011;16191;49.548;8.658;2023-09-30T00:43:55;7.22;;;2.88;;
29120;SDS011;16191;49.548;8.658;2023-09-30T00:46:29;7.90;;;2.70;;
29120;SDS011;16191;49.548;8.658;2023-09-30T00:48:58;9.05;;;2.58;;
29120;SDS011;16191;49.548;8.658;2023-09-30T00:51:27;8.77;;;3.35;;
29120;SDS011;16191;49.548;8.658;2023-09-30T00:53:54;11.77;;;3.13;;
29120;SDS011;16191;49.548;8.658;2023-09-30T00:56:25;8.65;;;3.15;;
29120;SDS011;16191;49.548;8.658;2023-09-30T00:58:53;7.70;;;2.85;;
29120;SDS011;16191;49.548;8.658;2023-09-30T01:01:20;6.80;;;2.47;;
29120;SDS011;16191;49.548;8.658;2023-09-30T01:03:47;7.78;;;2.83;;
29120;SDS011;16191;49.548;8.658;2023-09-30T01:06:15;7.78;;;2.90;;
29120;SDS011;16191;49.548;8.658;2023-09-30T01:09:01;10.80;;;3.25;;
29120;SDS011;16191;49.548;8.658;2023-09-30T01:11:49;5.82;;;2.67;;
29120;SDS011;16191;49.548;8.658;2023-09-30T01:14:36;7.80;;;3.30;;
29120;SDS011;16191;49.548;8.658;2023-09-30T01:17:27;6.15;;;2.50;;
29120;SDS011;16191;49.548;8.658;2023-09-30T01:20:15;8.07;;;2.85;;
29120;SDS011;16191;49.548;8.658;2023-09-30T01:23:02;7.68;;;2.83;;
29120;SDS011;16191;49.548;8.658;2023-09-30T01:25:30;8.77;;;2.95;;
29120;SDS011;16191;49.548;8.658;2023-09-30T01:27:57;7.70;;;2.90;;
29120;SDS011;16191;49.548;8.658;2023-09-30T01:30:26;9.40;;;3.47;;
29120;SDS011;16191;49.548;8.658;2023-09-30T01:32:53;7.72;;;3.47;;
29120;SDS011;16191;49.548;8.658;2023-09-30T01:35:22;10.32;;;3.22;;
29120;SDS011;16191;49.548;8.658;2023-09-30T01:37:48;9.60;;;3.33;;
29120;SDS011;16191;49.548;8.658;2023-09-30T01:40:15;9.52;;;3.53;;
29120;SDS011;16191;49.548;8.658;2023-09-30T01:42:41;10.30;;;3.50;;
29120;SDS011;16191;49.548;8.658;2023-09-30T01:45:09;8.77;;;3.05;;
29120;SDS011;16191;49.548;8.658;2023-09-30T01:47:37;7.25;;;3.17;;
29120;SDS011;16191;49.548;8.658;2023-09-30T01:50:03;9.13;;;2.60;;
29120;SDS011;16191;49.548;8.658;2023-09-30T01:52:30;7.63;;;3.10;;
29120;SDS011;16191;49.548;8.658;2023-09-30T01:54:57;5.72;;;2.75;;
29120;SDS011;16191;49.548;8.658;2023-09-30T01:57:24;10.75;;;3.22;;
29120;SDS011;16191;49.548;8.658;2023-09-30T01:59:50;8.80;;;3.45;;
29120;SDS011;16191;49.548;8.658;2023-09-30T02:02:18;8.95;;;3.30;;
29120;SDS011;16191;49.548;8.658;2023-09-30T02:04:45;9.75;;;3.85;;
29120;SDS011;16191;49.548;8.658;2023-09-30T02:07:12;10.88;;;3.72;;
29120;SDS011;16191;49.548;8.658;2023-09-30T02:09:38;6.85;;;3.28;;
29120;SDS011;16191;49.548;8.658;2023-09-30T02:12:05;10.23;;;3.72;;
29120;SDS011;16191;49.548;8.658;2023-09-30T02:14:34;8.90;;;3.75;;
29120;SDS011;16191;49.548;8.658;2023-09-30T02:17:01;10.10;;;4.05;;
29120;SDS011;16191;49.548;8.658;2023-09-30T02:19:28;14.43;;;4.15;;
29120;SDS011;16191;49.548;8.658;2023-09-30T02:21:57;7.50;;;3.10;;
29120;SDS011;16191;49.548;8.658;2023-09-30T02:24:23;9.55;;;3.10;;
29120;SDS011;16191;49.548;8.658;2023-09-30T02:26:50;9.43;;;4.00;;
29120;SDS011;16191;49.548;8.658;2023-09-30T02:29:17;9.98;;;3.47;;
29120;SDS011;16191;49.548;8.658;2023-09-30T02:31:43;9.65;;;3.33;;
29120;SDS011;16191;49.548;8.658;2023-09-30T02:34:10;10.15;;;3.55;;
29120;SDS011;16191;49.548;8.658;2023-09-30T02:36:39;8.90;;;3.65;;
29120;SDS011;16191;49.548;8.658;2023-09-30T02:39:06;8.73;;;3.35;;
29120;SDS011;16191;49.548;8.658;2023-09-30T02:41:35;11.05;;;3.35;;
29120;SDS011;16191;49.548;8.658;2023-09-30T02:44:04;8.07;;;2.80;;
29120;SDS011;16191;49.548;8.658;2023-09-30T02:46:31;10.20;;;3.58;;
29120;SDS011;16191;49.548;8.658;2023-09-30T02:48:58;12.40;;;3.78;;
29120;SDS011;16191;49.548;8.658;2023-09-30T02:51:24;9.73;;;3.60;;
29120;SDS011;16191;49.548;8.658;2023-09-30T02:53:53;8.98;;;3.60;;
29120;SDS011;16191;49.548;8.658;2023-09-30T02:56:22;9.88;;;3.85;;
29120;SDS011;16191;49.548;8.658;2023-09-30T02:58:50;8.57;;;3.90;;
29120;SDS011;16191;49.548;8.658;2023-09-30T03:01:20;10.68;;;3.33;;
29120;SDS011;16191;49.548;8.658;2023-09-30T03:03:47;10.07;;;3.95;;
29120;SDS011;16191;49.548;8.658;2023-09-30T03:06:14;8.90;;;3.55;;
29120;SDS011;16191;49.548;8.658;2023-09-30T03:08:41;10.57;;;4.43;;
29120;SDS011;16191;49.548;8.658;2023-09-30T03:11:08;8.85;;;4.22;;
29120;SDS011;16191;49.548;8.658;2023-09-30T03:13:34;12.65;;;4.28;;
29120;SDS011;16191;49.548;8.658;2023-09-30T03:16:01;10.38;;;4.03;;
29120;SDS011;16191;49.548;8.658;2023-09-30T03:18:28;11.00;;;4.30;;
29120;SDS011;16191;49.548;8.658;2023-09-30T03:21:00;12.07;;;4.50;;
29120;SDS011;16191;49.548;8.658;2023-09-30T03:23:34;12.70;;;4.18;;
29120;SDS011;16191;49.548;8.658;2023-09-30T03:26:01;10.95;;;4.32;;
29120;SDS011;16191;49.548;8.658;2023-09-30T03:28:28;10.63;;;4.35;;
29120;SDS011;16191;49.548;8.658;2023-09-30T03:30:55;9.57;;;4.15;;
29120;SDS011;16191;49.548;8.658;2023-09-30T03:33:23;11.18;;;4.60;;
29120;SDS011;16191;49.548;8.658;2023-09-30T03:35:49;9.90;;;4.38;;
29120;SDS011;16191;49.548;8.658;2023-09-30T03:38:16;10.98;;;4.70;;
29120;SDS011;16191;49.548;8.658;2023-09-30T03:40:44;10.05;;;4.65;;
29120;SDS011;16191;49.548;8.658;2023-09-30T03:43:16;8.82;;;4.70;;
29120;SDS011;16191;49.548;8.658;2023-09-30T03:45:42;12.65;;;4.20;;
29120;SDS011;16191;49.548;8.658;2023-09-30T03:48:09;9.18;;;4.25;;
29120;SDS011;16191;49.548;8.658;2023-09-30T03:50:37;12.85;;;4.90;;
29120;SDS011;16191;49.548;8.658;2023-09-30T03:53:04;7.20;;;3.90;;
29120;SDS011;16191;49.548;8.658;2023-09-30T03:55:33;9.55;;;4.03;;
29120;SDS011;16191;49.548;8.658;2023-09-30T03:58:00;9.20;;;4.38;;
29120;SDS011;16191;49.548;8.658;2023-09-30T04:00:27;12.05;;;4.85;;
29120;SDS011;16191;49.548;8.658;2023-09-30T04:02:55;10.73;;;3.95;;
29120;SDS011;16191;49.548;8.658;2023-09-30T04:05:25;9.27;;;4.28;;
29120;SDS011;16191;49.548;8.658;2023-09-30T04:07:56;9.55;;;4.43;;
29120;SDS011;16191;49.548;8.658;2023-09-30T04:10:23;14.10;;;4.60;;
29120;SDS011;16191;49.548;8.658;2023-09-30T04:12:51;10.10;;;4.53;;
29120;SDS011;16191;49.548;8.658;2023-09-30T04:15:18;12.07;;;4.80;;
29120;SDS011;16191;49.548;8.658;2023-09-30T04:17:45;13.23;;;5.35;;
29120;SDS011;16191;49.548;8.658;2023-09-30T04:20:12;18.02;;;5.60;;
29120;SDS011;16191;49.548;8.658;2023-09-30T04:22:45;13.38;;;5.38;;
29120;SDS011;16191;49.548;8.658;2023-09-30T04:25:15;11.07;;;5.65;;
29120;SDS011;16191;49.548;8.658;2023-09-30T04:27:43;13.60;;;5.32;;
29120;SDS011;16191;49.548;8.658;2023-09-30T04:30:12;7.05;;;4.95;;
29120;SDS011;16191;49.548;8.658;2023-09-30T04:32:41;11.93;;;5.68;;
29120;SDS011;16191;49.548;8.658;2023-09-30T04:35:08;13.70;;;5.50;;
29120;SDS011;16191;49.548;8.658;2023-09-30T04:37:35;10.90;;;5.45;;
29120;SDS011;16191;49.548;8.658;2023-09-30T04:40:03;11.48;;;4.90;;
29120;SDS011;16191;49.548;8.658;2023-09-30T04:42:35;9.75;;;5.25;;
29120;SDS011;16191;49.548;8.658;2023-09-30T04:45:05;13.43;;;4.35;;
29120;SDS011;16191;49.548;8.658;2023-09-30T04:47:34;13.68;;;5.10;;
29120;SDS011;16191;49.548;8.658;2023-09-30T04:50:00;12.88;;;5.03;;
29120;SDS011;16191;49.548;8.658;2023-09-30T04:52:31;10.95;;;4.70;;
29120;SDS011;16191;49.548;8.658;2023-09-30T04:54:57;10.68;;;5.03;;
29120;SDS011;16191;49.548;8.658;2023-09-30T04:57:24;13.75;;;5.28;;
29120;SDS011;16191;49.548;8.658;2023-09-30T04:59:51;14.60;;;5.60;;
29120;SDS011;16191;49.548;8.658;2023-09-30T05:02:18;11.85;;;5.28;;
29120;SDS011;16191;49.548;8.658;2023-09-30T05:04:45;11.88;;;6.30;;
29120;SDS011;16191;49.548;8.658;2023-09-30T05:07:11;14.70;;;6.20;;
29120;SDS011;16191;49.548;8.658;2023-09-30T05:09:39;13.27;;;6.43;;
29120;SDS011;16191;49.548;8.658;2023-09-30T05:12:06;13.68;;;5.75;;
29120;SDS011;16191;49.548;8.658;2023-09-30T05:14:33;16.25;;;5.85;;
29120;SDS011;16191;49.548;8.658;2023-09-30T05:17:00;11.68;;;5.88;;
29120;SDS011;16191;49.548;8.658;2023-09-30T05:19:27;15.27;;;6.65;;
29120;SDS011;16191;49.548;8.658;2023-09-30T05:21:54;14.27;;;6.18;;
29120;SDS011;16191;49.548;8.658;2023-09-30T05:24:21;13.52;;;6.82;;
29120;SDS011;16191;49.548;8.658;2023-09-30T05:26:47;15.07;;;6.53;;
29120;SDS011;16191;49.548;8.658;2023-09-30T05:29:14;13.15;;;6.90;;
29120;SDS011;16191;49.548;8.658;2023-09-30T05:31:43;16.58;;;6.78;;
29120;SDS011;16191;49.548;8.658;2023-09-30T05:34:09;12.52;;;6.43;;
29120;SDS011;16191;49.548;8.658;2023-09-30T05:36:36;13.82;;;6.63;;
29120;SDS011;16191;49.548;8.658;2023-09-30T05:39:03;17.58;;;6.55;;
29120;SDS011;16191;49.548;8.658;2023-09-30T05:41:31;12.73;;;5.90;;
29120;SDS011;16191;49.548;8.658;2023-09-30T05:43:58;14.25;;;6.43;;
29120;SDS011;16191;49.548;8.658;2023-09-30T05:46:25;12.73;;;6.40;;
29120;SDS011;16191;49.548;8.658;2023-09-30T05:48:53;15.82;;;7.10;;
29120;SDS011;16191;49.548;8.658;2023-09-30T05:51:21;15.15;;;7.18;;
29120;SDS011;16191;49.548;8.658;2023-09-30T05:53:47;12.48;;;7.30;;
29120;SDS011;16191;49.548;8.658;2023-09-30T05:56:14;14.38;;;7.07;;
29120;SDS011;16191;49.548;8.658;2023-09-30T05:58:44;14.97;;;7.17;;
29120;SDS011;16191;49.548;8.658;2023-09-30T06:01:10;14.68;;;7.97;;
29120;SDS011;16191;49.548;8.658;2023-09-30T06:03:37;13.55;;;7.50;;
29120;SDS011;16191;49.548;8.658;2023-09-30T06:06:10;18.80;;;8.27;;
29120;SDS011;16191;49.548;8.658;2023-09-30T06:08:39;16.15;;;7.47;;
29120;SDS011;16191;49.548;8.658;2023-09-30T06:11:06;14.73;;;7.57;;
29120;SDS011;16191;49.548;8.658;2023-09-30T06:13:33;16.35;;;7.47;;
29120;SDS011;16191;49.548;8.658;2023-09-30T06:15:59;15.50;;;7.22;;
29120;SDS011;16191;49.548;8.658;2023-09-30T06:18:26;13.10;;;6.10;;
29120;SDS011;16191;49.548;8.658;2023-09-30T06:20:53;12.73;;;5.82;;
29120;SDS011;16191;49.548;8.658;2023-09-30T06:23:19;10.07;;;4.60;;
29120;SDS011;16191;49.548;8.658;2023-09-30T06:25:46;8.63;;;3.97;;
29120;SDS011;16191;49.548;8.658;2023-09-30T06:28:13;10.50;;;4.55;;
29120;SDS011;16191;49.548;8.658;2023-09-30T06:30:40;12.05;;;4.15;;
29120;SDS011;16191;49.548;8.658;2023-09-30T06:33:08;10.75;;;4.13;;
29120;SDS011;16191;49.548;8.658;2023-09-30T06:35:38;8.47;;;4.13;;
29120;SDS011;16191;49.548;8.658;2023-09-30T06:38:19;11.10;;;4.10;;
29120;SDS011;16191;49.548;8.658;2023-09-30T06:40:46;7.45;;;3.70;;
29120;SDS011;16191;49.548;8.658;2023-09-30T06:43:14;7.78;;;3.67;;
29120;SDS011;16191;49.548;8.658;2023-09-30T06:48:13;7.18;;;3.90;;
29120;SDS011;16191;49.548;8.658;2023-09-30T06:50:43;9.07;;;3.92;;
29120;SDS011;16191;49.548;8.658;2023-09-30T06:53:11;7.10;;;3.53;;
29120;SDS011;16191;49.548;8.658;2023-09-30T06:55:38;9.25;;;3.30;;
29120;SDS011;16191;49.548;8.658;2023-09-30T06:58:06;7.88;;;4.10;;
29120;SDS011;16191;49.548;8.658;2023-09-30T07:00:37;7.93;;;3.83;;
29120;SDS011;16191;49.548;8.658;2023-09-30T07:03:05;6.78;;;3.88;;
29120;SDS011;16191;49.548;8.658;2023-09-30T07:05:31;12.32;;;3.92;;
29120;SDS011;16191;49.548;8.658;2023-09-30T07:07:58;9.27;;;3.80;;
29120;SDS011;16191;49.548;8.658;2023-09-30T07:10:24;10.32;;;4.30;;
29120;SDS011;16191;49.548;8.658;2023-09-30T07:12:51;9.20;;;3.95;;
29120;SDS011;16191;49.548;8.658;2023-09-30T07:15:18;10.30;;;4.47;;
29120;SDS011;16191;49.548;8.658;2023-09-30T07:17:44;9.52;;;3.83;;
29120;SDS011;16191;49.548;8.658;2023-09-30T07:20:13;7.95;;;3.95;;
29120;SDS011;16191;49.548;8.658;2023-09-30T07:22:40;9.88;;;3.97;;
29120;SDS011;16191;49.548;8.658;2023-09-30T07:25:21;11.32;;;5.00;;
29120;SDS011;16191;49.548;8.658;2023-09-30T07:27:48;10.23;;;4.40;;
29120;SDS011;16191;49.548;8.658;2023-09-30T07:30:15;8.93;;;3.38;;
29120;SDS011;16191;49.548;8.658;2023-09-30T07:32:43;10.68;;;4.28;;
29120;SDS011;16191;49.548;8.658;2023-09-30T07:35:10;12.25;;;3.90;;
29120;SDS011;16191;49.548;8.658;2023-09-30T07:37:38;7.78;;;3.40;;
29120;SDS011;16191;49.548;8.658;2023-09-30T07:40:05;10.45;;;3.65;;
29120;SDS011;16191;49.548;8.658;2023-09-30T07:42:32;6.47;;;3.45;;
29120;SDS011;16191;49.548;8.658;2023-09-30T07:45:00;10.43;;;3.45;;
29120;SDS011;16191;49.548;8.658;2023-09-30T07:47:26;11.10;;;4.05;;
29120;SDS011;16191;49.548;8.658;2023-09-30T07:49:53;11.77;;;2.97;;
29120;SDS011;16191;49.548;8.658;2023-09-30T07:52:20;9.25;;;3.20;;
29120;SDS011;16191;49.548;8.658;2023-09-30T07:54:47;9.05;;;3.90;;
29120;SDS011;16191;49.548;8.658;2023-09-30T07:57:14;12.73;;;3.25;;
29120;SDS011;16191;49.548;8.658;2023-09-30T07:59:41;16.70;;;4.10;;
29120;SDS011;16191;49.548;8.658;2023-09-30T08:02:07;10.70;;;3.45;;
29120;SDS011;16191;49.548;8.658;2023-09-30T08:04:35;13.63;;;3.92;;
29120;SDS011;16191;49.548;8.658;2023-09-30T08:07:02;10.20;;;3.47;;
29120;SDS011;16191;49.548;8.658;2023-09-30T08:09:29;9.13;;;3.38;;
29120;SDS011;16191;49.548;8.658;2023-09-30T08:11:56;7.93;;;3.42;;
29120;SDS011;16191;49.548;8.658;2023-09-30T08:14:23;8.95;;;3.15;;
29120;SDS011;16191;49.548;8.658;2023-09-30T08:16:49;12.07;;;3.95;;
29120;SDS011;16191;49.548;8.658;2023-09-30T08:19:16;10.48;;;3.13;;
29120;SDS011;16191;49.548;8.658;2023-09-30T08:21:46;8.55;;;3.40;;
29120;SDS011;16191;49.548;8.658;2023-09-30T08:24:12;9.55;;;3.13;;
29120;SDS011;16191;49.548;8.658;2023-09-30T08:26:39;13.95;;;4.15;;
29120;SDS011;16191;49.548;8.658;2023-09-30T08:29:05;10.57;;;3.75;;
29120;SDS011;16191;49.548;8.658;2023-09-30T08:31:32;11.60;;;3.53;;
29120;SDS011;16191;49.548;8.658;2023-09-30T08:33:59;11.10;;;3.55;;
29120;SDS011;16191;49.548;8.658;2023-09-30T08:36:26;9.63;;;3.35;;
29120;SDS011;16191;49.548;8.658;2023-09-30T08:38:52;9.40;;;3.10;;
29120;SDS011;16191;49.548;8.658;2023-09-30T08:41:32;8.60;;;3.25;;
29120;SDS011;16191;49.548;8.658;2023-09-30T08:44:00;11.98;;;3.45;;
29120;SDS011;16191;49.548;8.658;2023-09-30T08:46:32;11.35;;;4.15;;
29120;SDS011;16191;49.548;8.658;2023-09-30T08:49:01;13.63;;;3.80;;
29120;SDS011;16191;49.548;8.658;2023-09-30T08:51:32;8.88;;;3.60;;
29120;SDS011;16191;49.548;8.658;2023-09-30T08:53:59;9.38;;;3.85;;
29120;SDS011;16191;49.548;8.658;2023-09-30T08:56:28;11.68;;;4.15;;
29120;SDS011;16191;49.548;8.658;2023-09-30T08:58:56;11.82;;;3.75;;
29120;SDS011;16191;49.548;8.658;2023-09-30T09:01:28;14.65;;;4.97;;
29120;SDS011;16191;49.548;8.658;2023-09-30T09:03:56;9.90;;;4.10;;
29120;SDS011;16191;49.548;8.658;2023-09-30T09:06:24;8.75;;;3.47;;
29120;SDS011;16191;49.548;8.658;2023-09-30T09:08:52;11.85;;;3.90;;
29120;SDS011;16191;49.548;8.658;2023-09-30T09:11:19;10.05;;;3.92;;
29120;SDS011;16191;49.548;8.658;2023-09-30T09:13:47;11.45;;;4.85;;
29120;SDS011;16191;49.548;8.658;2023-09-30T09:16:22;10.55;;;4.68;;
29120;SDS011;16191;49.548;8.658;2023-09-30T09:18:50;7.30;;;3.60;;
29120;SDS011;16191;49.548;8.658;2023-09-30T09:21:18;9.57;;;3.95;;
29120;SDS011;16191;49.548;8.658;2023-09-30T09:23:49;11.73;;;4.20;;
29120;SDS011;16191;49.548;8.658;2023-09-30T09:26:27;11.93;;;4.53;;
29120;SDS011;16191;49.548;8.658;2023-09-30T09:29:01;10.98;;;4.38;;
29120;SDS011;16191;49.548;8.658;2023-09-30T09:31:31;8.65;;;4.10;;
29120;SDS011;16191;49.548;8.658;2023-09-30T09:34:01;8.82;;;3.80;;
29120;SDS011;16191;49.548;8.658;2023-09-30T09:36:42;12.07;;;4.28;;
29120;SDS011;16191;49.548;8.658;2023-09-30T09:39:10;8.80;;;4.15;;
29120;SDS011;16191;49.548;8.658;2023-09-30T09:41:52;12.83;;;4.40;;
29120;SDS011;16191;49.548;8.658;2023-09-30T09:44:21;13.73;;;4.47;;
29120;SDS011;16191;49.548;8.658;2023-09-30T09:46:49;13.23;;;4.50;;
29120;SDS011;16191;49.548;8.658;2023-09-30T09:49:17;11.23;;;3.92;;
29120;SDS011;16191;49.548;8.658;2023-09-30T09:51:48;10.65;;;4.70;;
29120;SDS011;16191;49.548;8.658;2023-09-30T09:54:16;16.17;;;5.40;;
29120;SDS011;16191;49.548;8.658;2023-09-30T09:56:46;12.43;;;4.13;;
29120;SDS011;16191;49.548;8.658;2023-09-30T09:59:15;11.50;;;4.88;;
29120;SDS011;16191;49.548;8.658;2023-09-30T10:01:42;12.93;;;4.80;;
29120;SDS011;16191;49.548;8.658;2023-09-30T10:04:12;12.07;;;4.40;;
29120;SDS011;16191;49.548;8.658;2023-09-30T10:06:43;8.40;;;4.45;;
29120;SDS011;16191;49.548;8.658;2023-09-30T10:09:15;12.25;;;5.07;;
29120;SDS011;16191;49.548;8.658;2023-09-30T10:11:43;10.10;;;4.35;;
29120;SDS011;16191;49.548;8.658;2023-09-30T10:14:22;14.10;;;4.53;;
29120;SDS011;16191;49.548;8.658;2023-09-30T10:16:56;10.10;;;4.18;;
29120;SDS011;16191;49.548;8.658;2023-09-30T10:19:23;16.58;;;6.25;;
29120;SDS011;16191;49.548;8.658;2023-09-30T10:24:46;12.90;;;5.53;;
29120;SDS011;16191;49.548;8.658;2023-09-30T10:30:01;10.95;;;4.30;;
29120;SDS011;16191;49.548;8.658;2023-09-30T10:40:57;10.88;;;4.35;;
29120;SDS011;16191;49.548;8.658;2023-09-30T10:43:30;12.07;;;4.90;;
29120;SDS011;16191;49.548;8.658;2023-09-30T10:46:00;12.02;;;4.43;;
29120;SDS011;16191;49.548;8.658;2023-09-30T10:50:54;10.40;;;4.28;;
29120;SDS011;16191;49.548;8.658;2023-09-30T10:53:22;10.50;;;4.07;;
29120;SDS011;16191;49.548;8.658;2023-09-30T10:55:56;12.27;;;4.50;;
29120;SDS011;16191;49.548;8.658;2023-09-30T11:01:10;10.25;;;4.38;;
29120;SDS011;16191;49.548;8.658;2023-09-30T11:03:40;9.50;;;4.18;;
29120;SDS011;16191;49.548;8.658;2023-09-30T11:06:10;11.65;;;4.38;;
29120;SDS011;16191;49.548;8.658;2023-09-30T11:08:40;11.93;;;4.60;;
29120;SDS011;16191;49.548;8.658;2023-09-30T11:11:12;9.93;;;4.40;;
29120;SDS011;16191;49.548;8.658;2023-09-30T11:13:41;12.35;;;4.10;;
29120;SDS011;16191;49.548;8.658;2023-09-30T11:16:07;11.40;;;4.57;;
29120;SDS011;16191;49.548;8.658;2023-09-30T11:18:35;11.02;;;4.60;;
29120;SDS011;16191;49.548;8.658;2023-09-30T11:21:05;11.98;;;4.95;;
29120;SDS011;16191;49.548;8.658;2023-09-30T11:23:37;11.77;;;4.15;;
29120;SDS011;16191;49.548;8.658;2023-09-30T11:26:04;8.07;;;4.20;;
29120;SDS011;16191;49.548;8.658;2023-09-30T11:28:49;10.57;;;4.40;;
29120;SDS011;16191;49.548;8.658;2023-09-30T11:31:16;14.70;;;4.95;;
29120;SDS011;16191;49.548;8.658;2023-09-30T11:33:51;11.45;;;4.30;;
29120;SDS011;16191;49.548;8.658;2023-09-30T11:36:20;10.35;;;4.43;;
29120;SDS011;16191;49.548;8.658;2023-09-30T11:38:48;8.73;;;4.13;;
29120;SDS011;16191;49.548;8.658;2023-09-30T11:41:17;9.07;;;3.92;;
29120;SDS011;16191;49.548;8.658;2023-09-30T11:43:58;11.20;;;4.60;;
29120;SDS011;16191;49.548;8.658;2023-09-30T11:46:57;9.93;;;4.82;;
29120;SDS011;16191;49.548;8.658;2023-09-30T11:49:30;9.35;;;4.03;;
29120;SDS011;16191;49.548;8.658;2023-09-30T11:52:02;7.68;;;3.90;;
29120;SDS011;16191;49.548;8.658;2023-09-30T11:54:31;9.63;;;4.57;;
29120;SDS011;16191;49.548;8.658;2023-09-30T11:57:05;9.10;;;4.35;;
29120;SDS011;16191;49.548;8.658;2023-09-30T11:59:36;10.75;;;4.80;;
29120;SDS011;16191;49.548;8.658;2023-09-30T12:02:04;8.95;;;4.18;;
29120;SDS011;16191;49.548;8.658;2023-09-30T12:04:44;13.70;;;5.28;;
29120;SDS011;16191;49.548;8.658;2023-09-30T12:07:13;12.13;;;4.65;;
29120;SDS011;16191;49.548;8.658;2023-09-30T12:09:41;12.98;;;5.45;;
29120;SDS011;16191;49.548;8.658;2023-09-30T12:12:11;11.45;;;5.15;;
29120;SDS011;16191;49.548;8.658;2023-09-30T12:14:40;11.27;;;5.30;;
29120;SDS011;16191;49.548;8.658;2023-09-30T12:17:07;12.65;;;5.32;;
29120;SDS011;16191;49.548;8.658;2023-09-30T12:19:39;12.95;;;6.20;;
29120;SDS011;16191;49.548;8.658;2023-09-30T12:22:08;10.05;;;5.22;;
29120;SDS011;16191;49.548;8.658;2023-09-30T12:24:35;11.73;;;5.28;;
29120;SDS011;16191;49.548;8.658;2023-09-30T12:27:02;9.60;;;4.70;;
29120;SDS011;16191;49.548;8.658;2023-09-30T12:29:28;10.82;;;5.55;;
29120;SDS011;16191;49.548;8.658;2023-09-30T12:31:55;10.48;;;5.10;;
29120;SDS011;16191;49.548;8.658;2023-09-30T12:34:22;12.95;;;5.38;;
29120;SDS011;16191;49.548;8.658;2023-09-30T12:36:53;10.07;;;4.90;;
29120;SDS011;16191;49.548;8.658;2023-09-30T12:39:22;11.02;;;4.72;;
29120;SDS011;16191;49.548;8.658;2023-09-30T12:44:19;12.00;;;5.30;;
29120;SDS011;16191;49.548;8.658;2023-09-30T12:46:46;9.10;;;4.60;;
29120;SDS011;16191;49.548;8.658;2023-09-30T12:49:13;14.63;;;5.68;;
29120;SDS011;16191;49.548;8.658;2023-09-30T12:51:40;14.02;;;5.70;;
29120;SDS011;16191;49.548;8.658;2023-09-30T12:54:07;9.68;;;4.68;;
29120;SDS011;16191;49.548;8.658;2023-09-30T12:56:35;12.48;;;5.07;;
29120;SDS011;16191;49.548;8.658;2023-09-30T12:59:02;10.95;;;4.82;;
29120;SDS011;16191;49.548;8.658;2023-09-30T13:01:29;10.45;;;4.93;;
29120;SDS011;16191;49.548;8.658;2023-09-30T13:04:01;11.60;;;5.35;;
29120;SDS011;16191;49.548;8.658;2023-09-30T13:06:28;11.25;;;5.10;;
29120;SDS011;16191;49.548;8.658;2023-09-30T13:08:57;11.50;;;5.53;;
29120;SDS011;16191;49.548;8.658;2023-09-30T13:11:26;13.43;;;5.03;;
29120;SDS011;16191;49.548;8.658;2023-09-30T13:13:53;11.77;;;5.00;;
29120;SDS011;16191;49.548;8.658;2023-09-30T13:16:19;9.43;;;5.25;;
29120;SDS011;16191;49.548;8.658;2023-09-30T13:18:47;10.30;;;5.05;;
29120;SDS011;16191;49.548;8.658;2023-09-30T13:21:14;10.23;;;5.15;;
29120;SDS011;16191;49.548;8.658;2023-09-30T13:23:42;9.63;;;4.70;;
29120;SDS011;16191;49.548;8.658;2023-09-30T13:26:09;12.43;;;5.53;;
29120;SDS011;16191;49.548;8.658;2023-09-30T13:28:35;15.50;;;5.70;;
29120;SDS011;16191;49.548;8.658;2023-09-30T13:31:02;12.95;;;5.75;;
29120;SDS011;16191;49.548;8.658;2023-09-30T13:33:29;13.85;;;5.55;;
29120;SDS011;16191;49.548;8.658;2023-09-30T13:35:55;13.25;;;5.35;;
29120;SDS011;16191;49.548;8.658;2023-09-30T13:38:23;10.77;;;4.57;;
29120;SDS011;16191;49.548;8.658;2023-09-30T13:40:50;9.55;;;5.13;;
29120;SDS011;16191;49.548;8.658;2023-09-30T13:43:17;16.02;;;5.38;;
29120;SDS011;16191;49.548;8.658;2023-09-30T13:45:43;13.15;;;4.97;;
29120;SDS011;16191;49.548;8.658;2023-09-30T13:48:10;10.70;;;4.90;;
29120;SDS011;16191;49.548;8.658;2023-09-30T13:50:38;11.38;;;4.82;;
29120;SDS011;16191;49.548;8.658;2023-09-30T13:53:05;13.02;;;5.32;;
29120;SDS011;16191;49.548;8.658;2023-09-30T13:55:32;10.30;;;5.43;;
29120;SDS011;16191;49.548;8.658;2023-09-30T13:57:58;13.48;;;5.03;;
29120;SDS011;16191;49.548;8.658;2023-09-30T14:00:25;12.38;;;5.38;;
29120;SDS011;16191;49.548;8.658;2023-09-30T14:02:52;9.82;;;5.28;;
29120;SDS011;16191;49.548;8.658;2023-09-30T14:05:19;10.88;;;5.45;;
29120;SDS011;16191;49.548;8.658;2023-09-30T14:07:47;10.30;;;4.93;;
29120;SDS011;16191;49.548;8.658;2023-09-30T14:10:14;13.70;;;5.10;;
29120;SDS011;16191;49.548;8.658;2023-09-30T14:12:41;11.80;;;5.05;;
29120;SDS011;16191;49.548;8.658;2023-09-30T14:15:09;9.48;;;4.68;;
29120;SDS011;16191;49.548;8.658;2023-09-30T14:17:36;13.88;;;5.38;;
29120;SDS011;16191;49.548;8.658;2023-09-30T14:20:03;11.80;;;4.88;;
29120;SDS011;16191;49.548;8.658;2023-09-30T14:22:32;11.63;;;4.75;;
29120;SDS011;16191;49.548;8.658;2023-09-30T14:24:59;10.18;;;4.63;;
29120;SDS011;16191;49.548;8.658;2023-09-30T14:27:26;8.20;;;4.30;;
29120;SDS011;16191;49.548;8.658;2023-09-30T14:29:53;9.65;;;4.88;;
29120;SDS011;16191;49.548;8.658;2023-09-30T14:32:20;7.78;;;4.65;;
29120;SDS011;16191;49.548;8.658;2023-09-30T14:34:46;11.10;;;5.13;;
29120;SDS011;16191;49.548;8.658;2023-09-30T14:37:13;10.07;;;5.35;;
29120;SDS011;16191;49.548;8.658;2023-09-30T14:39:40;8.23;;;4.85;;
29120;SDS011;16191;49.548;8.658;2023-09-30T14:42:07;13.27;;;5.18;;
29120;SDS011;16191;49.548;8.658;2023-09-30T14:44:34;12.23;;;5.28;;
29120;SDS011;16191;49.548;8.658;2023-09-30T14:47:01;10.65;;;5.00;;
29120;SDS011;16191;49.548;8.658;2023-09-30T14:49:27;9.95;;;5.00;;
29120;SDS011;16191;49.548;8.658;2023-09-30T14:51:56;8.60;;;4.93;;
29120;SDS011;16191;49.548;8.658;2023-09-30T14:54:23;15.25;;;5.38;;
29120;SDS011;16191;49.548;8.658;2023-09-30T14:56:50;12.10;;;4.93;;
29120;SDS011;16191;49.548;8.658;2023-09-30T14:59:16;10.90;;;5.30;;
29120;SDS011;16191;49.548;8.658;2023-09-30T15:01:43;10.98;;;5.20;;
29120;SDS011;16191;49.548;8.658;2023-09-30T15:04:10;10.13;;;5.10;;
29120;SDS011;16191;49.548;8.658;2023-09-30T15:06:37;9.15;;;4.60;;
29120;SDS011;16191;49.548;8.658;2023-09-30T15:09:04;10.10;;;5.03;;
29120;SDS011;16191;49.548;8.658;2023-09-30T15:11:31;9.68;;;5.25;;
29120;SDS011;16191;49.548;8.658;2023-09-30T15:13:58;10.02;;;4.72;;